sensor_id;sensor_type;location;lat;lon;timestamp;temperature;humidity
9768;DHT22;4923;52.520;13.494;2023-06-22T00:00:50;20.00;1.00
9768;DHT22;4923;52.520;13.494;2023-06-22T00:03:37;20.10;1.00
9768;DHT22;4923;52.520;13.494;2023-06-22T00:06:24;20.10;1.00
9768;DHT22;4923;52.520;13.494;2023-06-22T00:09:12;20.00;1.00
9768;DHT22;4923;52.520;13.494;2023-06-22T00:11:59;20.00;1.00
9768;DHT22;4923;52.520;13.494;2023-06-22T00:14:46;19.90;1.00
9768;DHT22;4923;52.520;13.494;2023-06-22T00:17:33;19.90;1.00
9768;DHT22;4923;52.520;13.494;2023-06-22T00:20:20;19.90;1.00
9768;DHT22;4923;52.520;13.494;2023-06-22T00:23:07;19.90;1.00
9768;DHT22;4923;52.520;13.494;2023-06-22T00:25:56;19.80;1.00
9768;DHT22;4923;52.520;13.494;2023-06-22T00:28:42;19.80;1.00
9768;DHT22;4923;52.520;13.494;2023-06-22T00:31:29;19.80;1.00
9768;DHT22;4923;52.520;13.494;2023-06-22T00:34:16;19.90;1.00
9768;DHT22;4923;52.520;13.494;2023-06-22T00:37:03;19.80;1.00
9768;DHT22;4923;52.520;13.494;2023-06-22T00:39:50;19.80;1.00
9768;DHT22;4923;52.520;13.494;2023-06-22T00:42:38;19.80;1.00
9768;DHT22;4923;52.520;13.494;2023-06-22T00:45:26;19.70;1.00
9768;DHT22;4923;52.520;13.494;2023-06-22T00:48:14;19.70;1.00
9768;DHT22;4923;52.520;13.494;2023-06-22T00:51:01;19.60;1.00
9768;DHT22;4923;52.520;13.494;2023-06-22T00:53:48;19.60;1.00
9768;DHT22;4923;52.520;13.494;2023-06-22T00:56:36;19.60;1.00
9768;DHT22;4923;52.520;13.494;2023-06-22T00:59:25;19.60;1.00
9768;DHT22;4923;52.520;13.494;2023-06-22T01:02:13;19.50;1.00
9768;DHT22;4923;52.520;13.494;2023-06-22T01:05:00;19.50;1.00
9768;DHT22;4923;52.520;13.494;2023-06-22T01:07:59;19.40;1.00
9768;DHT22;4923;52.520;13.494;2023-06-22T01:10:51;19.30;1.00
9768;DHT22;4923;52.520;13.494;2023-06-22T01:13:44;19.30;1.00
9768;DHT22;4923;52.520;13.494;2023-06-22T01:16:35;19.30;1.00
9768;DHT22;4923;52.520;13.494;2023-06-22T01:19:36;19.30;1.00
9768;DHT22;4923;52.520;13.494;2023-06-22T01:22:28;19.30;1.00
9768;DHT22;4923;52.520;13.494;2023-06-22T01:25:20;19.20;1.00
9768;DHT22;4923;52.520;13.494;2023-06-22T01:28:22;19.20;1.00
9768;DHT22;4923;52.520;13.494;2023-06-22T01:31:13;19.20;1.00
9768;DHT22;4923;52.520;13.494;2023-06-22T01:34:02;19.20;1.00
9768;DHT22;4923;52.520;13.494;2023-06-22T01:36:51;19.20;1.00
9768;DHT22;4923;52.520;13.494;2023-06-22T01:39:38;19.20;1.00
9768;DHT22;4923;52.520;13.494;2023-06-22T01:42:26;19.20;1.00
9768;DHT22;4923;52.520;13.494;2023-06-22T01:45:13;19.20;1.00
9768;DHT22;4923;52.520;13.494;2023-06-22T01:48:02;19.10;1.00
9768;DHT22;4923;52.520;13.494;2023-06-22T01:50:49;19.00;1.00
9768;DHT22;4923;52.520;13.494;2023-06-22T01:53:36;18.90;1.00
9768;DHT22;4923;52.520;13.494;2023-06-22T01:56:23;18.90;1.00
9768;DHT22;4923;52.520;13.494;2023-06-22T01:59:14;19.00;1.00
9768;DHT22;4923;52.520;13.494;2023-06-22T02:02:07;19.00;1.00
9768;DHT22;4923;52.520;13.494;2023-06-22T02:04:59;19.00;1.00
9768;DHT22;4923;52.520;13.494;2023-06-22T02:07:54;19.00;1.00
9768;DHT22;4923;52.520;13.494;2023-06-22T02:10:44;19.00;1.00
9768;DHT22;4923;52.520;13.494;2023-06-22T02:13:32;19.10;1.00
9768;DHT22;4923;52.520;13.494;2023-06-22T02:16:19;19.10;1.00
9768;DHT22;4923;52.520;13.494;2023-06-22T02:19:06;19.10;1.00
9768;DHT22;4923;52.520;13.494;2023-06-22T02:21:55;19.20;1.00
9768;DHT22;4923;52.520;13.494;2023-06-22T02:24:42;19.20;1.00
9768;DHT22;4923;52.520;13.494;2023-06-22T02:27:29;19.20;1.00
9768;DHT22;4923;52.520;13.494;2023-06-22T02:30:15;19.20;1.00
9768;DHT22;4923;52.520;13.494;2023-06-22T02:33:02;19.20;1.00
9768;DHT22;4923;52.520;13.494;2023-06-22T02:35:49;19.20;1.00
9768;DHT22;4923;52.520;13.494;2023-06-22T02:38:37;19.30;1.00
9768;DHT22;4923;52.520;13.494;2023-06-22T02:41:25;19.20;1.00
9768;DHT22;4923;52.520;13.494;2023-06-22T02:44:11;19.20;1.00
9768;DHT22;4923;52.520;13.494;2023-06-22T02:46:58;19.30;1.00
9768;DHT22;4923;52.520;13.494;2023-06-22T02:49:45;19.30;1.00
9768;DHT22;4923;52.520;13.494;2023-06-22T02:52:32;19.30;1.00
9768;DHT22;4923;52.520;13.494;2023-06-22T02:55:20;19.40;1.00
9768;DHT22;4923;52.520;13.494;2023-06-22T02:58:07;19.50;1.00
9768;DHT22;4923;52.520;13.494;2023-06-22T03:00:54;19.50;1.00
9768;DHT22;4923;52.520;13.494;2023-06-22T03:03:41;19.60;1.00
9768;DHT22;4923;52.520;13.494;2023-06-22T03:06:28;19.60;1.00
9768;DHT22;4923;52.520;13.494;2023-06-22T03:09:15;19.70;1.00
9768;DHT22;4923;52.520;13.494;2023-06-22T03:12:03;19.80;1.00
9768;DHT22;4923;52.520;13.494;2023-06-22T03:14:50;19.80;1.00
9768;DHT22;4923;52.520;13.494;2023-06-22T03:17:38;19.80;1.00
9768;DHT22;4923;52.520;13.494;2023-06-22T03:20:25;19.80;1.00
9768;DHT22;4923;52.520;13.494;2023-06-22T03:23:19;19.90;1.00
9768;DHT22;4923;52.520;13.494;2023-06-22T03:26:05;19.90;1.00
9768;DHT22;4923;52.520;13.494;2023-06-22T03:28:54;19.90;1.00
9768;DHT22;4923;52.520;13.494;2023-06-22T03:31:41;20.00;1.00
9768;DHT22;4923;52.520;13.494;2023-06-22T03:34:28;20.00;1.00
9768;DHT22;4923;52.520;13.494;2023-06-22T03:37:19;20.00;1.00
9768;DHT22;4923;52.520;13.494;2023-06-22T03:40:07;20.00;1.00
9768;DHT22;4923;52.520;13.494;2023-06-22T03:42:54;20.00;1.00
9768;DHT22;4923;52.520;13.494;2023-06-22T03:45:42;20.10;1.00
9768;DHT22;4923;52.520;13.494;2023-06-22T03:48:31;20.20;1.00
9768;DHT22;4923;52.520;13.494;2023-06-22T03:51:18;20.60;1.00
9768;DHT22;4923;52.520;13.494;2023-06-22T03:54:04;20.70;1.00
9768;DHT22;4923;52.520;13.494;2023-06-22T03:56:51;20.90;1.00
9768;DHT22;4923;52.520;13.494;2023-06-22T03:59:38;21.00;1.00
9768;DHT22;4923;52.520;13.494;2023-06-22T04:02:26;21.20;1.00
9768;DHT22;4923;52.520;13.494;2023-06-22T04:05:13;21.40;1.00
9768;DHT22;4923;52.520;13.494;2023-06-22T04:08:00;21.50;1.00
9768;DHT22;4923;52.520;13.494;2023-06-22T04:10:47;21.80;1.00
9768;DHT22;4923;52.520;13.494;2023-06-22T04:13:34;22.00;1.00
9768;DHT22;4923;52.520;13.494;2023-06-22T04:16:21;22.30;1.00
9768;DHT22;4923;52.520;13.494;2023-06-22T04:19:09;22.70;1.00
9768;DHT22;4923;52.520;13.494;2023-06-22T04:22:01;22.90;99.90
9768;DHT22;4923;52.520;13.494;2023-06-22T04:24:48;23.20;99.90
9768;DHT22;4923;52.520;13.494;2023-06-22T04:27:37;23.50;99.90
9768;DHT22;4923;52.520;13.494;2023-06-22T04:30:25;23.80;99.90
9768;DHT22;4923;52.520;13.494;2023-06-22T04:33:13;24.00;99.90
9768;DHT22;4923;52.520;13.494;2023-06-22T04:36:01;24.10;99.90
9768;DHT22;4923;52.520;13.494;2023-06-22T04:38:49;24.10;99.90
9768;DHT22;4923;52.520;13.494;2023-06-22T04:41:39;24.20;99.90
9768;DHT22;4923;52.520;13.494;2023-06-22T04:44:29;24.30;99.90
9768;DHT22;4923;52.520;13.494;2023-06-22T04:47:16;24.20;99.90
9768;DHT22;4923;52.520;13.494;2023-06-22T04:50:04;24.30;99.90
9768;DHT22;4923;52.520;13.494;2023-06-22T04:52:53;24.30;99.90
9768;DHT22;4923;52.520;13.494;2023-06-22T04:55:40;24.40;99.90
9768;DHT22;4923;52.520;13.494;2023-06-22T04:58:31;24.60;99.90
9768;DHT22;4923;52.520;13.494;2023-06-22T05:01:18;24.80;99.90
9768;DHT22;4923;52.520;13.494;2023-06-22T05:04:08;25.00;99.90
9768;DHT22;4923;52.520;13.494;2023-06-22T05:06:55;25.10;99.90
9768;DHT22;4923;52.520;13.494;2023-06-22T05:09:43;25.20;99.90
9768;DHT22;4923;52.520;13.494;2023-06-22T05:12:30;25.20;99.90
9768;DHT22;4923;52.520;13.494;2023-06-22T05:15:17;25.40;99.90
9768;DHT22;4923;52.520;13.494;2023-06-22T05:18:05;25.50;99.90
9768;DHT22;4923;52.520;13.494;2023-06-22T05:20:52;25.60;99.90
9768;DHT22;4923;52.520;13.494;2023-06-22T05:23:39;25.70;99.90
9768;DHT22;4923;52.520;13.494;2023-06-22T05:26:27;25.80;99.90
9768;DHT22;4923;52.520;13.494;2023-06-22T05:29:15;25.80;99.90
9768;DHT22;4923;52.520;13.494;2023-06-22T05:32:02;25.70;99.90
9768;DHT22;4923;52.520;13.494;2023-06-22T05:34:49;25.50;99.90
9768;DHT22;4923;52.520;13.494;2023-06-22T05:37:36;25.40;99.90
9768;DHT22;4923;52.520;13.494;2023-06-22T05:40:22;25.10;99.90
9768;DHT22;4923;52.520;13.494;2023-06-22T05:43:11;25.10;99.90
9768;DHT22;4923;52.520;13.494;2023-06-22T05:45:58;25.30;99.90
9768;DHT22;4923;52.520;13.494;2023-06-22T05:48:45;25.30;99.90
9768;DHT22;4923;52.520;13.494;2023-06-22T05:51:32;25.20;99.90
9768;DHT22;4923;52.520;13.494;2023-06-22T05:54:19;25.00;99.90
9768;DHT22;4923;52.520;13.494;2023-06-22T05:57:06;24.90;99.90
9768;DHT22;4923;52.520;13.494;2023-06-22T05:59:54;25.00;99.90
9768;DHT22;4923;52.520;13.494;2023-06-22T06:02:41;25.10;99.90
9768;DHT22;4923;52.520;13.494;2023-06-22T06:05:29;25.10;99.90
9768;DHT22;4923;52.520;13.494;2023-06-22T06:08:16;24.90;99.90
9768;DHT22;4923;52.520;13.494;2023-06-22T06:11:03;25.00;99.90
9768;DHT22;4923;52.520;13.494;2023-06-22T06:13:50;25.20;99.90
9768;DHT22;4923;52.520;13.494;2023-06-22T06:16:38;25.40;99.90
9768;DHT22;4923;52.520;13.494;2023-06-22T06:19:25;25.50;99.90
9768;DHT22;4923;52.520;13.494;2023-06-22T06:22:12;25.50;99.90
9768;DHT22;4923;52.520;13.494;2023-06-22T06:24:59;25.30;99.90
9768;DHT22;4923;52.520;13.494;2023-06-22T06:27:47;25.30;99.90
9768;DHT22;4923;52.520;13.494;2023-06-22T06:30:35;25.10;99.90
9768;DHT22;4923;52.520;13.494;2023-06-22T06:33:24;25.00;99.90
9768;DHT22;4923;52.520;13.494;2023-06-22T06:36:11;25.00;99.90
9768;DHT22;4923;52.520;13.494;2023-06-22T06:38:57;25.00;99.90
9768;DHT22;4923;52.520;13.494;2023-06-22T06:41:44;25.10;99.90
9768;DHT22;4923;52.520;13.494;2023-06-22T06:44:31;25.00;99.90
9768;DHT22;4923;52.520;13.494;2023-06-22T06:47:18;25.00;99.90
9768;DHT22;4923;52.520;13.494;2023-06-22T06:50:07;25.20;99.90
9768;DHT22;4923;52.520;13.494;2023-06-22T06:52:55;25.30;99.90
9768;DHT22;4923;52.520;13.494;2023-06-22T06:55:44;25.50;99.90
9768;DHT22;4923;52.520;13.494;2023-06-22T06:58:32;25.50;99.90
9768;DHT22;4923;52.520;13.494;2023-06-22T07:01:18;25.60;99.90
9768;DHT22;4923;52.520;13.494;2023-06-22T07:04:06;25.30;99.90
9768;DHT22;4923;52.520;13.494;2023-06-22T07:06:54;25.10;99.90
9768;DHT22;4923;52.520;13.494;2023-06-22T07:09:41;25.10;99.90
9768;DHT22;4923;52.520;13.494;2023-06-22T07:12:28;25.20;99.90
9768;DHT22;4923;52.520;13.494;2023-06-22T07:15:15;25.10;99.90
9768;DHT22;4923;52.520;13.494;2023-06-22T07:18:02;25.10;99.90
9768;DHT22;4923;52.520;13.494;2023-06-22T07:20:49;25.20;99.90
9768;DHT22;4923;52.520;13.494;2023-06-22T07:23:37;25.50;99.90
9768;DHT22;4923;52.520;13.494;2023-06-22T07:26:23;25.90;99.90
9768;DHT22;4923;52.520;13.494;2023-06-22T07:29:10;26.10;99.90
9768;DHT22;4923;52.520;13.494;2023-06-22T07:31:57;26.20;99.90
9768;DHT22;4923;52.520;13.494;2023-06-22T07:34:46;26.50;99.90
9768;DHT22;4923;52.520;13.494;2023-06-22T07:37:33;26.70;99.90
9768;DHT22;4923;52.520;13.494;2023-06-22T07:40:22;27.10;99.90
9768;DHT22;4923;52.520;13.494;2023-06-22T07:43:09;27.30;99.90
9768;DHT22;4923;52.520;13.494;2023-06-22T07:45:56;27.40;99.90
9768;DHT22;4923;52.520;13.494;2023-06-22T07:48:43;27.30;99.90
9768;DHT22;4923;52.520;13.494;2023-06-22T07:51:30;27.10;99.90
9768;DHT22;4923;52.520;13.494;2023-06-22T07:54:16;27.10;99.90
9768;DHT22;4923;52.520;13.494;2023-06-22T07:57:05;27.00;99.90
9768;DHT22;4923;52.520;13.494;2023-06-22T07:59:52;27.40;99.90
9768;DHT22;4923;52.520;13.494;2023-06-22T08:02:39;27.90;99.90
9768;DHT22;4923;52.520;13.494;2023-06-22T08:05:26;28.10;99.90
9768;DHT22;4923;52.520;13.494;2023-06-22T08:08:13;28.20;99.90
9768;DHT22;4923;52.520;13.494;2023-06-22T08:11:01;28.10;99.90
9768;DHT22;4923;52.520;13.494;2023-06-22T08:13:49;28.00;99.90
9768;DHT22;4923;52.520;13.494;2023-06-22T08:16:36;27.70;99.90
9768;DHT22;4923;52.520;13.494;2023-06-22T08:19:22;27.90;99.90
9768;DHT22;4923;52.520;13.494;2023-06-22T08:22:09;28.10;99.90
9768;DHT22;4923;52.520;13.494;2023-06-22T08:24:56;28.40;99.90
9768;DHT22;4923;52.520;13.494;2023-06-22T08:27:45;28.30;99.90
9768;DHT22;4923;52.520;13.494;2023-06-22T08:30:34;28.50;99.90
9768;DHT22;4923;52.520;13.494;2023-06-22T08:33:21;28.50;99.90
9768;DHT22;4923;52.520;13.494;2023-06-22T08:36:14;28.60;99.90
9768;DHT22;4923;52.520;13.494;2023-06-22T08:39:02;28.50;99.90
9768;DHT22;4923;52.520;13.494;2023-06-22T08:41:49;28.60;99.90
9768;DHT22;4923;52.520;13.494;2023-06-22T08:44:35;28.90;99.90
9768;DHT22;4923;52.520;13.494;2023-06-22T08:47:24;28.80;99.90
9768;DHT22;4923;52.520;13.494;2023-06-22T08:50:12;29.00;99.90
9768;DHT22;4923;52.520;13.494;2023-06-22T08:52:59;28.90;99.90
9768;DHT22;4923;52.520;13.494;2023-06-22T08:55:45;29.10;99.90
9768;DHT22;4923;52.520;13.494;2023-06-22T08:58:32;29.30;99.90
9768;DHT22;4923;52.520;13.494;2023-06-22T09:01:20;29.50;99.90
9768;DHT22;4923;52.520;13.494;2023-06-22T09:04:08;29.00;99.90
9768;DHT22;4923;52.520;13.494;2023-06-22T09:06:55;28.80;99.90
9768;DHT22;4923;52.520;13.494;2023-06-22T09:09:42;28.80;99.90
9768;DHT22;4923;52.520;13.494;2023-06-22T09:12:29;29.00;99.90
9768;DHT22;4923;52.520;13.494;2023-06-22T09:15:16;29.30;99.90
9768;DHT22;4923;52.520;13.494;2023-06-22T09:18:03;29.50;99.90
9768;DHT22;4923;52.520;13.494;2023-06-22T09:20:52;29.40;99.90
9768;DHT22;4923;52.520;13.494;2023-06-22T09:23:39;29.40;99.90
9768;DHT22;4923;52.520;13.494;2023-06-22T09:26:25;29.60;99.90
9768;DHT22;4923;52.520;13.494;2023-06-22T09:29:12;30.00;99.90
9768;DHT22;4923;52.520;13.494;2023-06-22T09:31:59;30.00;99.90
9768;DHT22;4923;52.520;13.494;2023-06-22T09:34:46;30.10;99.90
9768;DHT22;4923;52.520;13.494;2023-06-22T09:37:34;30.00;99.90
9768;DHT22;4923;52.520;13.494;2023-06-22T09:40:21;30.20;99.90
9768;DHT22;4923;52.520;13.494;2023-06-22T09:43:08;30.30;99.90
9768;DHT22;4923;52.520;13.494;2023-06-22T09:45:55;30.50;99.90
9768;DHT22;4923;52.520;13.494;2023-06-22T09:48:42;30.30;99.90
9768;DHT22;4923;52.520;13.494;2023-06-22T09:51:29;30.00;99.90
9768;DHT22;4923;52.520;13.494;2023-06-22T09:54:17;29.90;99.90
9768;DHT22;4923;52.520;13.494;2023-06-22T09:57:04;29.40;99.90
9768;DHT22;4923;52.520;13.494;2023-06-22T09:59:51;29.50;99.90
9768;DHT22;4923;52.520;13.494;2023-06-22T10:02:38;29.60;99.90
9768;DHT22;4923;52.520;13.494;2023-06-22T10:05:25;29.50;99.90
9768;DHT22;4923;52.520;13.494;2023-06-22T10:08:12;29.60;99.90
9768;DHT22;4923;52.520;13.494;2023-06-22T10:11:00;29.40;99.90
9768;DHT22;4923;52.520;13.494;2023-06-22T10:13:47;29.40;99.90
9768;DHT22;4923;52.520;13.494;2023-06-22T10:16:36;29.10;99.90
9768;DHT22;4923;52.520;13.494;2023-06-22T10:19:23;28.90;99.90
9768;DHT22;4923;52.520;13.494;2023-06-22T10:22:10;28.90;99.90
9768;DHT22;4923;52.520;13.494;2023-06-22T10:24:57;28.90;99.90
9768;DHT22;4923;52.520;13.494;2023-06-22T10:27:45;28.90;99.90
9768;DHT22;4923;52.520;13.494;2023-06-22T10:30:31;29.00;99.90
9768;DHT22;4923;52.520;13.494;2023-06-22T10:33:18;29.10;99.90
9768;DHT22;4923;52.520;13.494;2023-06-22T10:36:06;29.00;99.90
9768;DHT22;4923;52.520;13.494;2023-06-22T10:38:53;28.70;99.90
9768;DHT22;4923;52.520;13.494;2023-06-22T10:41:41;28.60;99.90
9768;DHT22;4923;52.520;13.494;2023-06-22T10:44:29;28.60;99.90
9768;DHT22;4923;52.520;13.494;2023-06-22T10:47:16;28.60;99.90
9768;DHT22;4923;52.520;13.494;2023-06-22T10:50:03;28.70;99.90
9768;DHT22;4923;52.520;13.494;2023-06-22T10:52:50;28.60;99.90
9768;DHT22;4923;52.520;13.494;2023-06-22T10:55:37;28.70;99.90
9768;DHT22;4923;52.520;13.494;2023-06-22T10:58:24;28.80;99.90
9768;DHT22;4923;52.520;13.494;2023-06-22T11:01:13;29.00;99.90
9768;DHT22;4923;52.520;13.494;2023-06-22T11:04:00;29.20;99.90
9768;DHT22;4923;52.520;13.494;2023-06-22T11:06:47;29.40;99.90
9768;DHT22;4923;52.520;13.494;2023-06-22T11:09:34;29.50;99.90
9768;DHT22;4923;52.520;13.494;2023-06-22T11:12:21;29.70;99.90
9768;DHT22;4923;52.520;13.494;2023-06-22T11:15:08;29.70;99.90
9768;DHT22;4923;52.520;13.494;2023-06-22T11:17:57;29.80;99.90
9768;DHT22;4923;52.520;13.494;2023-06-22T11:20:43;29.80;99.90
9768;DHT22;4923;52.520;13.494;2023-06-22T11:23:30;29.70;99.90
9768;DHT22;4923;52.520;13.494;2023-06-22T11:26:17;29.90;99.90
9768;DHT22;4923;52.520;13.494;2023-06-22T11:29:04;29.80;99.90
9768;DHT22;4923;52.520;13.494;2023-06-22T11:31:51;30.00;99.90
9768;DHT22;4923;52.520;13.494;2023-06-22T11:34:39;30.10;99.90
9768;DHT22;4923;52.520;13.494;2023-06-22T11:37:26;30.20;99.90
9768;DHT22;4923;52.520;13.494;2023-06-22T11:40:13;30.40;99.90
9768;DHT22;4923;52.520;13.494;2023-06-22T11:43:00;30.70;99.90
9768;DHT22;4923;52.520;13.494;2023-06-22T11:45:47;30.90;99.90
9768;DHT22;4923;52.520;13.494;2023-06-22T11:48:34;30.40;99.90
9768;DHT22;4923;52.520;13.494;2023-06-22T11:51:23;30.20;99.90
9768;DHT22;4923;52.520;13.494;2023-06-22T11:54:10;30.20;99.90
9768;DHT22;4923;52.520;13.494;2023-06-22T11:56:57;30.00;99.90
9768;DHT22;4923;52.520;13.494;2023-06-22T11:59:44;29.90;99.90
9768;DHT22;4923;52.520;13.494;2023-06-22T12:02:30;29.80;99.90
9768;DHT22;4923;52.520;13.494;2023-06-22T12:05:18;29.60;99.90
9768;DHT22;4923;52.520;13.494;2023-06-22T12:08:07;29.40;99.90
9768;DHT22;4923;52.520;13.494;2023-06-22T12:10:54;29.20;99.90
9768;DHT22;4923;52.520;13.494;2023-06-22T12:13:41;29.30;99.90
9768;DHT22;4923;52.520;13.494;2023-06-22T12:16:28;29.50;99.90
9768;DHT22;4923;52.520;13.494;2023-06-22T12:19:14;29.80;99.90
9768;DHT22;4923;52.520;13.494;2023-06-22T12:22:01;30.30;99.90
9768;DHT22;4923;52.520;13.494;2023-06-22T12:24:50;30.20;99.90
9768;DHT22;4923;52.520;13.494;2023-06-22T12:27:37;30.30;99.90
9768;DHT22;4923;52.520;13.494;2023-06-22T12:30:24;30.40;99.90
9768;DHT22;4923;52.520;13.494;2023-06-22T12:33:11;30.60;99.90
9768;DHT22;4923;52.520;13.494;2023-06-22T12:35:58;30.00;99.90
9768;DHT22;4923;52.520;13.494;2023-06-22T12:38:44;30.30;99.90
9768;DHT22;4923;52.520;13.494;2023-06-22T12:41:33;30.40;99.90
9768;DHT22;4923;52.520;13.494;2023-06-22T12:44:19;29.90;99.90
9768;DHT22;4923;52.520;13.494;2023-06-22T12:47:06;29.70;99.90
9768;DHT22;4923;52.520;13.494;2023-06-22T12:49:54;29.70;99.90
9768;DHT22;4923;52.520;13.494;2023-06-22T12:52:40;29.30;99.90
9768;DHT22;4923;52.520;13.494;2023-06-22T12:55:28;29.00;99.90
9768;DHT22;4923;52.520;13.494;2023-06-22T12:58:16;28.70;99.90
9768;DHT22;4923;52.520;13.494;2023-06-22T13:01:03;28.70;99.90
9768;DHT22;4923;52.520;13.494;2023-06-22T13:03:50;29.00;99.90
9768;DHT22;4923;52.520;13.494;2023-06-22T13:06:37;29.30;99.90
9768;DHT22;4923;52.520;13.494;2023-06-22T13:09:24;29.50;99.90
9768;DHT22;4923;52.520;13.494;2023-06-22T13:12:10;29.50;99.90
9768;DHT22;4923;52.520;13.494;2023-06-22T13:14:59;29.70;99.90
9768;DHT22;4923;52.520;13.494;2023-06-22T13:17:45;29.90;99.90
9768;DHT22;4923;52.520;13.494;2023-06-22T13:20:32;30.20;99.90
9768;DHT22;4923;52.520;13.494;2023-06-22T13:23:19;30.20;99.90
9768;DHT22;4923;52.520;13.494;2023-06-22T13:26:07;30.30;99.90
9768;DHT22;4923;52.520;13.494;2023-06-22T13:28:54;30.40;99.90
9768;DHT22;4923;52.520;13.494;2023-06-22T13:31:42;30.40;99.90
9768;DHT22;4923;52.520;13.494;2023-06-22T13:34:29;30.20;99.90
9768;DHT22;4923;52.520;13.494;2023-06-22T13:37:16;30.30;99.90
9768;DHT22;4923;52.520;13.494;2023-06-22T13:40:05;30.30;99.90
9768;DHT22;4923;52.520;13.494;2023-06-22T13:42:52;30.40;99.90
9768;DHT22;4923;52.520;13.494;2023-06-22T13:45:40;30.30;99.90
9768;DHT22;4923;52.520;13.494;2023-06-22T13:48:28;29.90;99.90
9768;DHT22;4923;52.520;13.494;2023-06-22T13:51:15;30.00;99.90
9768;DHT22;4923;52.520;13.494;2023-06-22T13:54:02;30.00;99.90
9768;DHT22;4923;52.520;13.494;2023-06-22T13:56:49;29.80;99.90
9768;DHT22;4923;52.520;13.494;2023-06-22T13:59:36;29.80;99.90
9768;DHT22;4923;52.520;13.494;2023-06-22T14:02:23;29.90;99.90
9768;DHT22;4923;52.520;13.494;2023-06-22T14:05:11;29.90;99.90
9768;DHT22;4923;52.520;13.494;2023-06-22T14:07:58;29.80;99.90
9768;DHT22;4923;52.520;13.494;2023-06-22T14:10:45;29.80;99.90
9768;DHT22;4923;52.520;13.494;2023-06-22T14:13:31;29.70;99.90
9768;DHT22;4923;52.520;13.494;2023-06-22T14:16:18;29.80;99.90
9768;DHT22;4923;52.520;13.494;2023-06-22T14:19:05;29.60;99.90
9768;DHT22;4923;52.520;13.494;2023-06-22T14:21:53;29.70;99.90
9768;DHT22;4923;52.520;13.494;2023-06-22T14:24:40;29.90;99.90
9768;DHT22;4923;52.520;13.494;2023-06-22T14:27:27;30.00;99.90
9768;DHT22;4923;52.520;13.494;2023-06-22T14:30:14;30.10;99.90
9768;DHT22;4923;52.520;13.494;2023-06-22T14:33:01;30.20;99.90
9768;DHT22;4923;52.520;13.494;2023-06-22T14:35:48;30.30;99.90
9768;DHT22;4923;52.520;13.494;2023-06-22T14:38:37;30.00;99.90
9768;DHT22;4923;52.520;13.494;2023-06-22T14:41:24;30.20;99.90
9768;DHT22;4923;52.520;13.494;2023-06-22T14:44:11;30.20;99.90
9768;DHT22;4923;52.520;13.494;2023-06-22T14:46:58;30.10;99.90
9768;DHT22;4923;52.520;13.494;2023-06-22T14:49:44;30.30;99.90
9768;DHT22;4923;52.520;13.494;2023-06-22T14:52:31;30.30;99.90
9768;DHT22;4923;52.520;13.494;2023-06-22T14:55:19;29.80;99.90
9768;DHT22;4923;52.520;13.494;2023-06-22T14:58:06;29.80;99.90
9768;DHT22;4923;52.520;13.494;2023-06-22T15:00:53;29.60;99.90
9768;DHT22;4923;52.520;13.494;2023-06-22T15:03:40;29.60;99.90
9768;DHT22;4923;52.520;13.494;2023-06-22T15:06:27;29.60;99.90
9768;DHT22;4923;52.520;13.494;2023-06-22T15:09:14;29.40;99.90
9768;DHT22;4923;52.520;13.494;2023-06-22T15:12:02;29.70;99.90
9768;DHT22;4923;52.520;13.494;2023-06-22T15:14:51;29.90;99.90
9768;DHT22;4923;52.520;13.494;2023-06-22T15:17:38;29.90;99.90
9768;DHT22;4923;52.520;13.494;2023-06-22T15:20:25;29.90;99.90
9768;DHT22;4923;52.520;13.494;2023-06-22T15:23:12;29.90;99.90
9768;DHT22;4923;52.520;13.494;2023-06-22T15:26:02;29.70;99.90
9768;DHT22;4923;52.520;13.494;2023-06-22T15:28:51;29.70;99.90
9768;DHT22;4923;52.520;13.494;2023-06-22T15:31:38;29.80;99.90
9768;DHT22;4923;52.520;13.494;2023-06-22T15:34:25;29.80;99.90
9768;DHT22;4923;52.520;13.494;2023-06-22T15:37:12;29.70;99.90
9768;DHT22;4923;52.520;13.494;2023-06-22T15:39:59;29.90;99.90
9768;DHT22;4923;52.520;13.494;2023-06-22T15:42:46;30.00;99.90
9768;DHT22;4923;52.520;13.494;2023-06-22T15:45:34;29.90;99.90
9768;DHT22;4923;52.520;13.494;2023-06-22T15:48:21;29.70;99.90
9768;DHT22;4923;52.520;13.494;2023-06-22T15:51:08;29.50;99.90
9768;DHT22;4923;52.520;13.494;2023-06-22T15:53:56;29.50;99.90
9768;DHT22;4923;52.520;13.494;2023-06-22T15:56:43;29.50;99.90
9768;DHT22;4923;52.520;13.494;2023-06-22T15:59:30;29.60;99.90
9768;DHT22;4923;52.520;13.494;2023-06-22T16:02:18;29.40;99.90
9768;DHT22;4923;52.520;13.494;2023-06-22T16:05:06;29.40;99.90
9768;DHT22;4923;52.520;13.494;2023-06-22T16:07:55;29.40;99.90
9768;DHT22;4923;52.520;13.494;2023-06-22T16:10:42;29.30;99.90
9768;DHT22;4923;52.520;13.494;2023-06-22T16:13:29;29.30;99.90
9768;DHT22;4923;52.520;13.494;2023-06-22T16:16:16;29.30;99.90
9768;DHT22;4923;52.520;13.494;2023-06-22T16:19:04;29.40;99.90
9768;DHT22;4923;52.520;13.494;2023-06-22T16:21:51;29.30;99.90
9768;DHT22;4923;52.520;13.494;2023-06-22T16:24:38;29.30;99.90
9768;DHT22;4923;52.520;13.494;2023-06-22T16:27:25;29.40;99.90
9768;DHT22;4923;52.520;13.494;2023-06-22T16:30:13;29.40;99.90
9768;DHT22;4923;52.520;13.494;2023-06-22T16:33:01;29.30;99.90
9768;DHT22;4923;52.520;13.494;2023-06-22T16:35:49;29.20;99.90
9768;DHT22;4923;52.520;13.494;2023-06-22T16:38:36;29.10;99.90
9768;DHT22;4923;52.520;13.494;2023-06-22T16:41:23;29.10;99.90
9768;DHT22;4923;52.520;13.494;2023-06-22T16:44:12;29.10;99.90
9768;DHT22;4923;52.520;13.494;2023-06-22T16:46:59;29.40;99.90
9768;DHT22;4923;52.520;13.494;2023-06-22T16:49:47;29.60;99.90
9768;DHT22;4923;52.520;13.494;2023-06-22T16:52:36;29.40;99.90
9768;DHT22;4923;52.520;13.494;2023-06-22T16:55:24;29.30;99.90
9768;DHT22;4923;52.520;13.494;2023-06-22T16:58:12;29.20;99.90
9768;DHT22;4923;52.520;13.494;2023-06-22T17:01:04;29.00;99.90
9768;DHT22;4923;52.520;13.494;2023-06-22T17:04:01;29.00;99.90
9768;DHT22;4923;52.520;13.494;2023-06-22T17:06:54;28.90;99.90
9768;DHT22;4923;52.520;13.494;2023-06-22T17:09:46;28.80;99.90
9768;DHT22;4923;52.520;13.494;2023-06-22T17:12:33;28.60;99.90
9768;DHT22;4923;52.520;13.494;2023-06-22T17:15:21;28.50;99.90
9768;DHT22;4923;52.520;13.494;2023-06-22T17:18:09;28.50;99.90
9768;DHT22;4923;52.520;13.494;2023-06-22T17:20:56;28.40;99.90
9768;DHT22;4923;52.520;13.494;2023-06-22T17:23:43;28.20;99.90
9768;DHT22;4923;52.520;13.494;2023-06-22T17:26:31;28.20;99.90
9768;DHT22;4923;52.520;13.494;2023-06-22T17:29:18;28.00;99.90
9768;DHT22;4923;52.520;13.494;2023-06-22T17:32:06;27.90;99.90
9768;DHT22;4923;52.520;13.494;2023-06-22T17:34:53;27.90;99.90
9768;DHT22;4923;52.520;13.494;2023-06-22T17:37:47;27.80;99.90
9768;DHT22;4923;52.520;13.494;2023-06-22T17:40:34;27.60;99.90
9768;DHT22;4923;52.520;13.494;2023-06-22T17:43:27;27.40;99.90
9768;DHT22;4923;52.520;13.494;2023-06-22T17:46:14;27.30;99.90
9768;DHT22;4923;52.520;13.494;2023-06-22T17:49:04;27.20;99.90
9768;DHT22;4923;52.520;13.494;2023-06-22T17:51:52;27.10;99.90
9768;DHT22;4923;52.520;13.494;2023-06-22T17:54:39;27.10;99.90
9768;DHT22;4923;52.520;13.494;2023-06-22T17:57:26;27.00;99.90
9768;DHT22;4923;52.520;13.494;2023-06-22T18:00:15;27.00;99.90